Tuesday, December 11, 2018, 2:23 AM GMT
Back to Local

CWSD, Summerside Automatic Weather Reporting System

Location: , , Canada Lat: 46.433
Local Time: 2:23 AM GMT ( 2:23 GMT) Lon: -63.85
Time Zone: GMT Elev: 78 ft

Show me the last for .
Show Decoded

2018-12-11 02:00 METAR CWSD 110200Z AUTO 30010KT M09/M12 RMK AO1 SOG 15 1005 SLP149 T10901124 =
2018-12-11 01:00 METAR CWSD 110100Z AUTO 30009KT M09/M14 RMK AO1 SOG 15 1010 SLP149 T10851137 =
2018-12-11 00:00 METAR CWSD 110000Z AUTO 31009KT M10/M14 RMK AO1 SOG 15 2011 SLP147 T10961142 =
2018-12-10 23:00 METAR CWSD 102300Z AUTO 33007KT M11/M15 RMK AO1 SOG 15 3010 SLP144 T11061150 =
2018-12-10 22:00 METAR CWSD 102200Z AUTO 32002KT M10/M13 RMK AO1 SOG 15 3006 SLP139 T11021133 =
2018-12-10 21:00 METAR CWSD 102100Z AUTO 31003KT M10/M15 RMK AO1 SOG 15 2005 SLP136 T11031146 =
2018-12-10 20:00 METAR CWSD 102000Z AUTO 32007KT M08/M13 RMK AO1 SOG 15 3001 SLP134 T10841134 =
2018-12-10 19:00 METAR CWSD 101900Z AUTO 31009KT M08/M13 RMK AO1 SOG 15 5003 SLP132 T10811134 =
2018-12-10 18:00 METAR CWSD 101800Z AUTO 32011KT M08/M12 RMK AO1 SOG 15 6009 SLP130 T10781115 =
2018-12-10 15:00 METAR CWSD 101500Z AUTO 32011KT M08/M12 RMK AO1 SOG 16 0002 SLP140 T10831115 =
2018-12-10 14:00 METAR CWSD 101400Z AUTO 32009KT M08/M11 RMK AO1 SOG 17 2004 SLP141 T10841114 =
2018-12-10 13:00 METAR CWSD 101300Z AUTO 31005KT M10/M12 RMK AO1 SOG 16 1006 SLP140 T10991119 =
2018-12-10 12:00 METAR CWSD 101200Z AUTO 29004KT M09/M10 RMK AO1 SOG 17 3003 SLP138 T10911095
                 50011 =
2018-12-10 11:00 METAR CWSD 101100Z AUTO 30006KT M10/M11 RMK AO1 2PAST HR SOG 17 5004 SLP137
                 P0001 T10981113 50011 =
2018-12-10 10:00 METAR CWSD 101000Z AUTO 34004KT M10/M11 RMK AO1 SOG 17 6010 SLP134 T10961112
                 50009 =
2018-12-10 09:00 METAR CWSD 100900Z AUTO 27004KT M06/M08 RMK AO1 SOG 17 8010 SLP135 T10591076
                 50009 =
2018-12-10 08:00 METAR CWSD 100800Z AUTO 27008KT M06/M07 RMK AO1 7PAST HR SOG 17 6008 SLP141
                 P0003 T10571070 50009 =
2018-12-10 06:00 METAR CWSD 100600Z AUTO 22009KT M06/M07 RMK AO1 6PAST HR SOG 14 6020 SLP145
                 P0002 T10571068 50014 =
2018-12-10 05:00 METAR CWSD 100500Z AUTO 19007KT M07/M08 RMK AO1 6PAST HR SOG 14 7027 SLP149
                 P0002 T10711083 50008 =
2018-12-10 04:00 METAR CWSD 100400Z AUTO 22007KT M07/M10 RMK AO1 2PAST HR SOG 10 8020 SLP160
                 P0001 T10651097 50002 =
2018-12-10 03:00 METAR CWSD 100300Z AUTO 09001KT M08/M10 RMK AO1 SOG 10 8022 SLP165 T10841101 =

Support USWX by starting your Amazon purchase here.